Time;durP1;ratioP1;P1;durP2;ratioP2;P2;SDS_P1;SDS_P2;PMS_P1;PMS_P2;Temp;Humidity;BMP_temperature;BMP_pressure;BME280_temperature;BME280_humidity;BME280_pressure;Samples;Min_cycle;Max_cycle;Signal;HPM_P1;HPM_P2
2021/10/14 00:02:23;;;;;;;;;;;20.80;56.20;;;;;;5013704;28;1233;-70
2021/10/14 00:04:49;;;;;;;;;;;20.70;56.20;;;;;;5013749;28;1953;-70
2021/10/14 00:07:14;;;;;;;;;;;20.70;56.80;;;;;;5008143;28;1308;-70
2021/10/14 00:09:40;;;;;;;;;;;20.70;56.30;;;;;;5007583;28;1278;-70
2021/10/14 00:12:05;;;;;;;;;;;20.70;56.30;;;;;;5006761;28;1216;-69
2021/10/14 00:14:31;;;;;;;;;;;20.70;56.30;;;;;;5010715;28;1376;-68
2021/10/14 00:16:56;;;;;;;;;;;20.70;56.30;;;;;;5003623;28;1241;-69
2021/10/14 00:19:22;;;;;;;;;;;20.70;56.30;;;;;;5004843;28;1220;-69
2021/10/14 00:21:47;;;;;;;;;;;20.70;56.30;;;;;;5005453;28;1269;-70
2021/10/14 00:24:12;;;;;;;;;;;20.70;56.40;;;;;;5003952;28;1260;-69
2021/10/14 00:26:38;;;;;;;;;;;20.70;56.40;;;;;;5003737;28;1962;-70
2021/10/14 00:29:03;;;;;;;;;;;20.70;56.40;;;;;;4984720;28;1237;-69
2021/10/14 00:31:29;;;;;;;;;;;20.70;56.50;;;;;;5004490;28;1292;-68
2021/10/14 00:33:54;;;;;;;;;;;20.70;56.50;;;;;;5002363;28;1232;-70
2021/10/14 00:36:21;;;;;;;;;;;20.70;56.50;;;;;;5014144;28;1260;-70
2021/10/14 00:38:46;;;;;;;;;;;20.70;56.50;;;;;;5013023;28;1661;-70
2021/10/14 00:41:13;;;;;;;;;;;20.70;56.50;;;;;;5012221;28;1292;-70
2021/10/14 00:43:38;;;;;;;;;;;20.60;56.50;;;;;;5013058;28;1433;-70
2021/10/14 00:46:04;;;;;;;;;;;20.60;56.50;;;;;;5012956;28;1969;-70
2021/10/14 00:48:29;;;;;;;;;;;20.60;56.60;;;;;;5013917;28;1148;-70
2021/10/14 00:50:55;;;;;;;;;;;20.70;56.60;;;;;;5011454;28;1433;-70
2021/10/14 00:53:20;;;;;;;;;;;20.60;56.60;;;;;;5014179;28;1339;-70
2021/10/14 00:55:46;;;;;;;;;;;20.60;56.60;;;;;;5012779;28;1281;-69
2021/10/14 00:58:11;;;;;;;;;;;20.60;56.70;;;;;;5013071;28;1398;-70
2021/10/14 01:00:37;;;;;;;;;;;20.60;56.70;;;;;;5013019;28;1428;-70
2021/10/14 01:03:02;;;;;;;;;;;20.60;56.70;;;;;;5014078;28;1279;-70
2021/10/14 01:05:27;;;;;;;;;;;20.60;56.70;;;;;;5013719;28;1898;-70
2021/10/14 01:07:53;;;;;;;;;;;20.60;56.80;;;;;;5014319;28;1251;-70
2021/10/14 01:10:18;;;;;;;;;;;20.60;56.80;;;;;;5013445;28;1267;-69
2021/10/14 01:12:44;;;;;;;;;;;20.60;56.80;;;;;;5011941;28;1364;-70
2021/10/14 01:15:20;;;;;;;;;;;20.60;56.80;;;;;;5012843;28;1285;-69
2021/10/14 01:17:45;;;;;;;;;;;20.60;56.90;;;;;;5012813;28;1263;-70
2021/10/14 01:20:11;;;;;;;;;;;20.60;56.90;;;;;;5012909;28;1259;-69
2021/10/14 01:22:37;;;;;;;;;;;20.60;56.90;;;;;;5013868;28;1255;-70
2021/10/14 01:25:02;;;;;;;;;;;20.60;56.90;;;;;;5013912;28;1892;-70
2021/10/14 01:27:28;;;;;;;;;;;20.60;56.90;;;;;;5013574;28;1294;-70
2021/10/14 01:29:53;;;;;;;;;;;20.60;57.00;;;;;;5013409;28;1372;-70
2021/10/14 01:32:19;;;;;;;;;;;20.60;57.00;;;;;;5013622;28;1354;-70
2021/10/14 01:34:45;;;;;;;;;;;20.60;57.00;;;;;;5013826;28;1346;-70
2021/10/14 01:37:10;;;;;;;;;;;20.60;57.00;;;;;;5014057;28;1323;-70
2021/10/14 01:39:36;;;;;;;;;;;20.60;57.00;;;;;;5013848;28;1261;-70
2021/10/14 01:42:01;;;;;;;;;;;20.60;57.00;;;;;;5012894;28;1291;-70
2021/10/14 01:44:27;;;;;;;;;;;20.60;57.00;;;;;;5014026;28;1236;-70
2021/10/14 01:46:52;;;;;;;;;;;20.60;57.10;;;;;;5017535;28;1910;-70
2021/10/14 01:49:18;;;;;;;;;;;20.60;57.10;;;;;;5018462;28;1234;-70
2021/10/14 01:51:43;;;;;;;;;;;20.60;57.10;;;;;;5017595;28;1276;-70
2021/10/14 01:54:08;;;;;;;;;;;20.50;57.00;;;;;;5017621;28;1257;-70
2021/10/14 01:56:34;;;;;;;;;;;20.50;57.10;;;;;;5016693;28;1229;-69
2021/10/14 01:58:59;;;;;;;;;;;20.50;57.10;;;;;;5017422;28;2091;-70
2021/10/14 02:01:25;;;;;;;;;;;20.50;57.10;;;;;;5016096;28;1347;-70
2021/10/14 02:03:50;;;;;;;;;;;20.50;57.10;;;;;;5016787;28;1404;-69
2021/10/14 02:06:15;;;;;;;;;;;20.50;57.10;;;;;;5016531;28;1894;-70
2021/10/14 02:08:41;;;;;;;;;;;20.60;57.20;;;;;;5016499;28;1375;-69
2021/10/14 02:11:06;;;;;;;;;;;20.50;57.20;;;;;;5015241;28;1318;-69
2021/10/14 02:13:32;;;;;;;;;;;20.50;57.20;;;;;;5016556;28;1308;-69
2021/10/14 02:15:57;;;;;;;;;;;20.50;57.20;;;;;;5016589;28;1280;-69
2021/10/14 02:18:23;;;;;;;;;;;20.50;57.30;;;;;;5014228;28;1394;-69
2021/10/14 02:20:48;;;;;;;;;;;20.50;57.30;;;;;;5016011;28;1366;-70
2021/10/14 02:23:14;;;;;;;;;;;20.50;57.30;;;;;;5016776;28;1467;-70
2021/10/14 02:25:39;;;;;;;;;;;20.50;57.30;;;;;;5015977;28;1898;-70
2021/10/14 02:28:04;;;;;;;;;;;20.50;57.30;;;;;;5016794;28;1180;-70
2021/10/14 02:30:30;;;;;;;;;;;20.50;57.30;;;;;;5015545;28;1411;-70
2021/10/14 02:32:55;;;;;;;;;;;20.50;57.30;;;;;;5015510;28;1325;-69
2021/10/14 02:35:21;;;;;;;;;;;20.50;57.40;;;;;;5017353;28;1377;-70
2021/10/14 02:37:46;;;;;;;;;;;20.50;57.40;;;;;;5016520;28;1322;-70
2021/10/14 02:40:11;;;;;;;;;;;20.50;57.40;;;;;;5014903;28;1178;-69
2021/10/14 02:42:37;;;;;;;;;;;20.50;57.40;;;;;;5016691;28;1310;-70
2021/10/14 02:45:03;;;;;;;;;;;20.50;57.40;;;;;;5015814;28;1977;-70
2021/10/14 02:47:28;;;;;;;;;;;20.50;57.40;;;;;;5016279;28;1351;-70
2021/10/14 02:49:53;;;;;;;;;;;20.50;57.50;;;;;;5015426;28;1107;-70
2021/10/14 02:52:19;;;;;;;;;;;20.50;57.50;;;;;;5015474;28;1267;-70
2021/10/14 02:54:44;;;;;;;;;;;20.50;57.50;;;;;;5014335;28;1364;-70
2021/10/14 02:57:10;;;;;;;;;;;20.50;57.50;;;;;;5014304;28;1156;-70
2021/10/14 02:59:35;;;;;;;;;;;20.50;57.50;;;;;;5008084;28;1228;-69
2021/10/14 03:02:00;;;;;;;;;;;20.50;57.50;;;;;;4995819;28;1525;-69
2021/10/14 03:04:26;;;;;;;;;;;20.50;57.60;;;;;;5009400;28;1200;-69
2021/10/14 03:06:51;;;;;;;;;;;20.50;57.60;;;;;;5007543;28;1958;-69
2021/10/14 03:09:17;;;;;;;;;;;20.50;57.60;;;;;;5007501;28;1231;-69
2021/10/14 03:11:42;;;;;;;;;;;20.40;57.50;;;;;;5003624;28;1317;-68
2021/10/14 03:14:08;;;;;;;;;;;20.50;57.60;;;;;;5013265;28;1279;-68
2021/10/14 03:16:33;;;;;;;;;;;20.40;57.60;;;;;;5013465;28;1135;-68
2021/10/14 03:18:59;;;;;;;;;;;20.40;57.60;;;;;;5013966;28;1303;-68
2021/10/14 03:21:24;;;;;;;;;;;20.40;57.60;;;;;;5012946;28;1295;-68
2021/10/14 03:23:52;;;;;;;;;;;20.40;57.60;;;;;;5013568;28;1138;-68
2021/10/14 03:26:18;;;;;;;;;;;20.40;57.60;;;;;;5011928;28;1971;-68
2021/10/14 03:28:43;;;;;;;;;;;20.40;57.60;;;;;;5013182;28;1184;-69
2021/10/14 03:31:09;;;;;;;;;;;20.40;57.60;;;;;;5012862;28;1292;-68
2021/10/14 03:33:34;;;;;;;;;;;20.40;57.60;;;;;;5013034;28;1329;-70
2021/10/14 03:36:00;;;;;;;;;;;20.40;57.70;;;;;;5014765;28;1187;-69
2021/10/14 03:38:25;;;;;;;;;;;20.50;57.70;;;;;;5013713;28;1301;-69
2021/10/14 03:40:51;;;;;;;;;;;20.50;57.70;;;;;;5000679;28;1373;-70
2021/10/14 03:43:16;;;;;;;;;;;20.50;57.70;;;;;;5013135;28;1273;-69
2021/10/14 03:45:42;;;;;;;;;;;20.50;57.60;;;;;;5014637;28;1954;-69
2021/10/14 03:48:07;;;;;;;;;;;20.50;57.60;;;;;;5013228;28;1103;-69
2021/10/14 03:50:32;;;;;;;;;;;20.50;57.60;;;;;;5014017;28;1299;-69
2021/10/14 03:52:58;;;;;;;;;;;20.50;57.50;;;;;;5015377;28;1444;-69
2021/10/14 03:55:23;;;;;;;;;;;20.60;57.50;;;;;;5015792;28;1293;-69
2021/10/14 03:57:49;;;;;;;;;;;20.60;57.40;;;;;;5015550;28;1353;-68
2021/10/14 04:00:14;;;;;;;;;;;20.60;57.40;;;;;;5016675;28;1161;-70
2021/10/14 04:02:40;;;;;;;;;;;20.60;57.30;;;;;;5020472;28;1210;-70
2021/10/14 04:05:05;;;;;;;;;;;20.70;57.30;;;;;;5019075;28;1898;-70
2021/10/14 04:07:31;;;;;;;;;;;20.70;57.20;;;;;;5017521;28;1277;-70
2021/10/14 04:09:56;;;;;;;;;;;20.70;57.10;;;;;;5018686;28;1358;-70
2021/10/14 04:12:21;;;;;;;;;;;20.70;57.10;;;;;;5018935;28;1279;-70
2021/10/14 04:14:47;;;;;;;;;;;20.80;57.10;;;;;;5018676;28;1389;-70
2021/10/14 04:17:12;;;;;;;;;;;20.80;57.00;;;;;;5018501;28;1255;-70
2021/10/14 04:19:38;;;;;;;;;;;20.80;57.00;;;;;;5017337;28;1334;-69
2021/10/14 04:22:03;;;;;;;;;;;20.80;57.00;;;;;;5018365;28;1331;-69
2021/10/14 04:24:29;;;;;;;;;;;20.80;56.90;;;;;;5016736;28;1308;-70
2021/10/14 04:26:55;;;;;;;;;;;20.80;56.90;;;;;;5015717;28;1955;-70
2021/10/14 04:29:20;;;;;;;;;;;20.80;56.90;;;;;;5029316;28;1375;-69
2021/10/14 04:31:46;;;;;;;;;;;20.80;56.80;;;;;;5006350;28;2230;-70
2021/10/14 04:34:11;;;;;;;;;;;20.90;56.80;;;;;;4997198;28;1348;-69
2021/10/14 04:36:37;;;;;;;;;;;20.90;56.80;;;;;;5010630;28;1087;-68
2021/10/14 04:39:03;;;;;;;;;;;20.90;56.80;;;;;;5011721;28;1433;-68
2021/10/14 04:41:28;;;;;;;;;;;20.90;56.80;;;;;;5012015;28;1382;-69
2021/10/14 04:43:54;;;;;;;;;;;20.90;56.80;;;;;;5011379;28;1362;-70
2021/10/14 04:46:20;;;;;;;;;;;20.90;56.80;;;;;;5011359;28;1989;-70
2021/10/14 04:48:46;;;;;;;;;;;20.90;56.80;;;;;;5011753;28;1270;-68
2021/10/14 04:51:11;;;;;;;;;;;20.90;56.80;;;;;;5010768;28;1634;-69
2021/10/14 04:53:37;;;;;;;;;;;20.90;56.80;;;;;;5011734;28;1595;-69
2021/10/14 04:56:02;;;;;;;;;;;20.90;56.80;;;;;;5014645;28;1348;-68
2021/10/14 04:58:28;;;;;;;;;;;20.90;56.70;;;;;;5014275;28;1464;-68
2021/10/14 05:00:53;;;;;;;;;;;20.90;56.70;;;;;;5011372;28;1360;-68
2021/10/14 05:03:19;;;;;;;;;;;20.90;56.70;;;;;;5009118;28;2122;-70
2021/10/14 05:05:44;;;;;;;;;;;20.90;56.70;;;;;;5021897;28;1968;-70
2021/10/14 05:08:10;;;;;;;;;;;20.90;56.70;;;;;;5011612;28;1383;-69
2021/10/14 05:10:35;;;;;;;;;;;20.90;56.80;;;;;;5010336;28;1573;-69
2021/10/14 05:13:00;;;;;;;;;;;20.90;56.80;;;;;;5010309;28;1307;-69
2021/10/14 05:15:26;;;;;;;;;;;20.90;56.80;;;;;;5010803;28;1623;-68
2021/10/14 05:17:51;;;;;;;;;;;20.90;56.70;;;;;;5008514;28;1588;-69
2021/10/14 05:20:17;;;;;;;;;;;20.90;56.70;;;;;;5011492;28;1282;-69
2021/10/14 05:22:42;;;;;;;;;;;20.90;56.70;;;;;;5016834;28;1583;-68
2021/10/14 05:25:08;;;;;;;;;;;20.90;56.70;;;;;;5014893;28;1926;-69
2021/10/14 05:27:34;;;;;;;;;;;20.90;56.70;;;;;;5013880;28;1241;-69
2021/10/14 05:29:59;;;;;;;;;;;21.00;56.80;;;;;;5014114;28;1349;-68
2021/10/14 05:32:25;;;;;;;;;;;21.00;56.80;;;;;;5013961;28;1555;-70
2021/10/14 05:34:50;;;;;;;;;;;20.90;56.70;;;;;;5015072;28;1593;-69
2021/10/14 05:37:16;;;;;;;;;;;21.00;56.70;;;;;;5014995;28;1451;-68
2021/10/14 05:39:41;;;;;;;;;;;21.00;56.70;;;;;;5014786;28;1685;-69
2021/10/14 05:42:06;;;;;;;;;;;21.00;56.70;;;;;;5014207;28;1633;-69
2021/10/14 05:44:32;;;;;;;;;;;21.00;56.80;;;;;;5018368;28;1398;-67
2021/10/14 05:46:57;;;;;;;;;;;21.00;56.70;;;;;;5022714;22;2602;-68
2021/10/14 05:49:23;;;;;;;;;;;21.00;56.70;;;;;;5008729;28;1315;-67
2021/10/14 05:51:48;;;;;;;;;;;21.00;56.70;;;;;;5014873;28;1256;-68
2021/10/14 05:54:14;;;;;;;;;;;21.00;56.80;;;;;;5014841;28;1376;-67
2021/10/14 05:56:39;;;;;;;;;;;21.00;56.70;;;;;;5014425;28;1656;-67
2021/10/14 05:59:05;;;;;;;;;;;21.00;56.70;;;;;;5014731;28;1323;-67
2021/10/14 06:01:30;;;;;;;;;;;21.00;56.70;;;;;;5015320;28;1675;-68
2021/10/14 06:03:55;;;;;;;;;;;21.00;56.70;;;;;;5014654;28;1387;-67
2021/10/14 06:06:21;;;;;;;;;;;21.00;56.70;;;;;;5015723;28;1922;-67
2021/10/14 06:08:46;;;;;;;;;;;21.00;56.70;;;;;;5014707;28;1704;-67
2021/10/14 06:11:13;;;;;;;;;;;21.00;56.60;;;;;;5011930;28;1909;-66
2021/10/14 06:13:38;;;;;;;;;;;21.10;56.50;;;;;;5012901;28;1453;-67
2021/10/14 06:16:04;;;;;;;;;;;21.10;56.40;;;;;;5007243;28;1446;-67
2021/10/14 06:18:29;;;;;;;;;;;21.20;56.30;;;;;;5015278;28;1572;-67
2021/10/14 06:20:56;;;;;;;;;;;21.30;56.30;;;;;;5015198;28;1504;-67
2021/10/14 06:23:21;;;;;;;;;;;21.40;56.10;;;;;;5014761;28;1356;-67
2021/10/14 06:25:46;;;;;;;;;;;21.50;56.00;;;;;;5009428;28;1951;-67
2021/10/14 06:28:12;;;;;;;;;;;21.60;56.40;;;;;;5015036;28;1430;-67
2021/10/14 06:30:37;;;;;;;;;;;21.70;55.60;;;;;;5014374;28;1350;-67
2021/10/14 06:33:03;;;;;;;;;;;21.80;55.30;;;;;;5015080;28;1253;-67
2021/10/14 06:35:28;;;;;;;;;;;21.90;55.10;;;;;;5015048;28;1391;-68
2021/10/14 06:37:55;;;;;;;;;;;22.00;55.00;;;;;;5014765;28;1375;-68
2021/10/14 06:40:20;;;;;;;;;;;22.00;54.80;;;;;;5014599;28;1406;-66
2021/10/14 06:42:46;;;;;;;;;;;22.10;54.60;;;;;;5015125;28;1660;-67
2021/10/14 06:45:11;;;;;;;;;;;22.20;54.50;;;;;;5010623;28;1963;-70
2021/10/14 06:47:37;;;;;;;;;;;22.20;54.40;;;;;;5006387;28;1814;-71
2021/10/14 06:50:05;;;;;;;;;;;22.30;54.30;;;;;;5012932;28;1386;-69
2021/10/14 06:52:31;;;;;;;;;;;22.30;54.20;;;;;;5014939;28;1551;-69
2021/10/14 06:54:56;;;;;;;;;;;22.30;54.10;;;;;;5012255;28;1403;-70
2021/10/14 06:57:22;;;;;;;;;;;22.40;54.10;;;;;;5014331;28;1775;-70
2021/10/14 06:59:47;;;;;;;;;;;22.40;54.10;;;;;;5014809;28;1381;-67
2021/10/14 07:02:13;;;;;;;;;;;22.40;54.10;;;;;;5013380;28;1333;-68
2021/10/14 07:04:38;;;;;;;;;;;22.40;54.00;;;;;;5013755;28;1646;-67
2021/10/14 07:07:03;;;;;;;;;;;22.40;54.00;;;;;;5013227;28;1990;-67
2021/10/14 07:09:29;;;;;;;;;;;22.40;54.00;;;;;;5014723;28;1669;-67
2021/10/14 07:12:00;;;;;;;;;;;22.40;54.00;;;;;;5014275;28;1426;-68
2021/10/14 07:14:25;;;;;;;;;;;22.40;54.00;;;;;;5013354;28;1733;-67
2021/10/14 07:16:52;;;;;;;;;;;22.40;54.10;;;;;;5013222;28;1699;-67
2021/10/14 07:19:18;;;;;;;;;;;22.40;54.10;;;;;;5013296;28;1531;-67
2021/10/14 07:21:43;;;;;;;;;;;22.40;54.00;;;;;;5014112;28;1691;-67
2021/10/14 07:24:09;;;;;;;;;;;22.40;54.00;;;;;;5013109;28;1625;-67
2021/10/14 07:26:34;;;;;;;;;;;22.40;54.10;;;;;;5014155;28;1954;-68
2021/10/14 07:29:02;;;;;;;;;;;22.40;54.10;;;;;;5014359;28;1651;-68
2021/10/14 07:31:28;;;;;;;;;;;22.40;54.10;;;;;;5014049;28;1710;-69
2021/10/14 07:33:53;;;;;;;;;;;22.40;54.10;;;;;;5013189;28;1653;-68
2021/10/14 07:36:19;;;;;;;;;;;22.40;54.20;;;;;;5014089;28;1701;-68
2021/10/14 07:38:44;;;;;;;;;;;22.40;54.20;;;;;;5006889;28;1606;-68
2021/10/14 07:41:10;;;;;;;;;;;22.30;54.20;;;;;;5013241;28;1490;-68
2021/10/14 07:43:35;;;;;;;;;;;22.30;54.20;;;;;;5010635;28;1516;-68
2021/10/14 07:46:01;;;;;;;;;;;22.30;54.30;;;;;;5000922;28;1955;-70
2021/10/14 07:48:26;;;;;;;;;;;22.30;54.40;;;;;;5007033;28;1560;-69
2021/10/14 07:50:52;;;;;;;;;;;22.30;54.40;;;;;;5000171;28;1596;-69
2021/10/14 07:53:18;;;;;;;;;;;22.30;54.50;;;;;;5011988;28;1426;-69
2021/10/14 07:55:43;;;;;;;;;;;22.30;54.50;;;;;;5012178;28;1414;-69
2021/10/14 07:58:09;;;;;;;;;;;22.20;54.50;;;;;;5012230;28;1682;-70
2021/10/14 08:00:35;;;;;;;;;;;22.20;54.60;;;;;;5012208;28;1429;-69
2021/10/14 08:03:00;;;;;;;;;;;22.20;54.60;;;;;;5012203;28;1405;-69
2021/10/14 08:05:25;;;;;;;;;;;22.20;54.70;;;;;;5013025;28;1966;-68
2021/10/14 08:07:51;;;;;;;;;;;22.20;54.70;;;;;;5013120;28;1379;-72
2021/10/14 08:10:16;;;;;;;;;;;22.20;54.70;;;;;;5013387;28;1426;-71
2021/10/14 08:12:43;;;;;;;;;;;22.20;54.80;;;;;;5011895;28;1613;-69
2021/10/14 08:15:08;;;;;;;;;;;22.20;54.80;;;;;;5012206;28;1471;-70
2021/10/14 08:17:34;;;;;;;;;;;22.10;54.80;;;;;;5013084;28;1380;-72
2021/10/14 08:19:59;;;;;;;;;;;22.10;54.90;;;;;;5011903;28;1579;-71
2021/10/14 08:22:25;;;;;;;;;;;22.10;54.90;;;;;;5013287;28;1677;-71
2021/10/14 08:24:51;;;;;;;;;;;22.10;55.20;;;;;;5013266;28;1315;-71
2021/10/14 08:27:16;;;;;;;;;;;22.10;55.20;;;;;;5013083;28;1961;-68
2021/10/14 08:29:42;;;;;;;;;;;22.10;55.20;;;;;;5012594;28;1653;-68
2021/10/14 08:32:07;;;;;;;;;;;22.10;55.50;;;;;;5012299;28;1563;-69
2021/10/14 08:34:33;;;;;;;;;;;22.00;55.70;;;;;;5009061;28;1802;-70
2021/10/14 08:36:58;;;;;;;;;;;22.00;56.00;;;;;;4995486;28;1606;-68
2021/10/14 08:39:24;;;;;;;;;;;22.00;56.10;;;;;;5012705;28;1193;-69
2021/10/14 08:41:50;;;;;;;;;;;22.00;56.20;;;;;;5012081;28;1596;-69
2021/10/14 08:44:18;;;;;;;;;;;22.00;56.30;;;;;;5011968;28;1658;-68
2021/10/14 08:46:44;;;;;;;;;;;21.90;56.40;;;;;;5006604;28;1957;-69
2021/10/14 08:49:09;;;;;;;;;;;22.00;56.50;;;;;;4989577;28;1679;-68
2021/10/14 08:51:35;;;;;;;;;;;21.90;56.50;;;;;;5003206;28;1594;-68
2021/10/14 08:54:01;;;;;;;;;;;22.00;57.30;;;;;;5013201;28;1687;-68
2021/10/14 08:56:28;;;;;;;;;;;22.00;56.60;;;;;;5017078;28;1643;-68
2021/10/14 08:58:54;;;;;;;;;;;22.00;56.60;;;;;;5017036;28;1052;-68
2021/10/14 09:01:19;;;;;;;;;;;22.00;56.50;;;;;;5016797;28;1382;-68
2021/10/14 09:03:48;;;;;;;;;;;22.10;56.60;;;;;;5016924;28;1538;-69
2021/10/14 09:06:14;;;;;;;;;;;22.10;56.50;;;;;;5016556;28;1935;-69
2021/10/14 09:08:49;;;;;;;;;;;22.10;56.50;;;;;;5016877;28;1620;-68
2021/10/14 09:11:19;;;;;;;;;;;22.10;56.50;;;;;;5016772;28;1647;-68
2021/10/14 09:13:46;;;;;;;;;;;22.20;56.50;;;;;;5015731;28;1622;-67
2021/10/14 09:16:18;;;;;;;;;;;22.20;56.50;;;;;;5015874;28;1396;-68
2021/10/14 09:18:43;;;;;;;;;;;22.20;56.40;;;;;;5015087;28;1407;-69
2021/10/14 09:21:10;;;;;;;;;;;22.20;56.40;;;;;;5016199;28;1689;-68
2021/10/14 09:23:35;;;;;;;;;;;22.30;56.40;;;;;;5014815;28;1638;-68
2021/10/14 09:26:01;;;;;;;;;;;22.30;56.40;;;;;;5015883;28;1899;-68
2021/10/14 09:28:28;;;;;;;;;;;22.30;56.40;;;;;;5009748;28;1395;-68
2021/10/14 09:31:01;;;;;;;;;;;22.30;56.30;;;;;;5013373;28;1413;-68
2021/10/14 09:33:39;;;;;;;;;;;22.30;57.00;;;;;;5014857;28;1290;-68
2021/10/14 09:36:15;;;;;;;;;;;22.30;56.40;;;;;;5015879;28;1327;-68
2021/10/14 09:38:40;;;;;;;;;;;22.30;56.40;;;;;;5016072;28;1288;-68
2021/10/14 09:41:07;;;;;;;;;;;22.30;56.40;;;;;;5014999;28;1408;-68
2021/10/14 09:43:32;;;;;;;;;;;22.30;56.40;;;;;;5014884;28;1143;-68
2021/10/14 09:45:58;;;;;;;;;;;22.30;56.40;;;;;;5014078;28;1984;-67
2021/10/14 09:48:23;;;;;;;;;;;22.30;56.40;;;;;;4995005;28;1272;-68
2021/10/14 09:50:49;;;;;;;;;;;22.30;56.40;;;;;;5014334;28;1398;-67
2021/10/14 09:53:15;;;;;;;;;;;22.30;56.50;;;;;;5014112;28;1357;-66
2021/10/14 09:55:40;;;;;;;;;;;22.30;56.50;;;;;;5011211;28;1285;-67
2021/10/14 09:58:06;;;;;;;;;;;22.30;56.50;;;;;;5008631;28;1232;-67
2021/10/14 10:00:31;;;;;;;;;;;22.30;56.60;;;;;;5008212;28;1303;-67
2021/10/14 10:15:40;;;;;;;;;;;22.30;56.10;;;;;;5137080;27;2339;-71
2021/10/14 10:18:24;;;;;;;;;;;22.20;56.80;;;;;;5105529;22;1964;-70
2021/10/14 10:20:50;;;;;;;;;;;22.20;56.80;;;;;;5081468;28;1708;-70
2021/10/14 10:23:28;;;;;;;;;;;22.20;57.00;;;;;;5055206;28;2139;-71
2021/10/14 10:25:56;;;;;;;;;;;22.20;57.00;;;;;;5070492;28;1193;-70
2021/10/14 10:28:37;;;;;;;;;;;22.20;57.00;;;;;;5069301;28;1441;-69
2021/10/14 10:31:02;;;;;;;;;;;22.20;57.00;;;;;;5083400;28;1435;-72
2021/10/14 10:33:52;;;;;;;;;;;22.20;57.00;;;;;;5058043;28;2523;-72
2021/10/14 10:36:56;;;;;;;;;;;22.10;57.00;;;;;;5084677;28;1314;-73
2021/10/14 10:39:40;;;;;;;;;;;22.20;57.20;;;;;;5044618;28;2194;-73
2021/10/14 10:42:16;;;;;;;;;;;22.10;57.10;;;;;;5027038;28;1759;-73
2021/10/14 10:44:41;;;;;;;;;;;22.10;57.20;;;;;;5061870;28;1967;-72
2021/10/14 10:47:26;;;;;;;;;;;22.10;57.30;;;;;;5088084;28;1490;-73
2021/10/14 10:49:54;;;;;;;;;;;22.10;57.20;;;;;;5074316;28;1510;-73
2021/10/14 10:52:32;;;;;;;;;;;22.10;57.30;;;;;;5055564;28;1338;-73
2021/10/14 10:54:58;;;;;;;;;;;22.10;57.30;;;;;;5066654;28;1852;-70
2021/10/14 10:57:56;;;;;;;;;;;22.10;57.30;;;;;;5084703;28;1304;-71
2021/10/14 11:00:22;;;;;;;;;;;22.10;57.30;;;;;;5037299;28;1355;-71
2021/10/14 11:03:06;;;;;;;;;;;22.10;57.50;;;;;;5060178;28;1964;-69
2021/10/14 11:05:41;;;;;;;;;;;22.10;57.30;;;;;;5076880;28;1426;-71
2021/10/14 11:08:07;;;;;;;;;;;22.20;57.30;;;;;;5068025;28;1315;-70
2021/10/14 11:10:33;;;;;;;;;;;22.10;57.30;;;;;;5076084;28;1219;-72
2021/10/14 11:12:59;;;;;;;;;;;22.20;57.30;;;;;;5049324;28;1514;-71
2021/10/14 11:15:26;;;;;;;;;;;22.20;57.30;;;;;;5069241;28;1248;-70
2021/10/14 11:18:04;;;;;;;;;;;22.20;57.30;;;;;;5048318;28;1212;-71
2021/10/14 11:20:30;;;;;;;;;;;22.20;57.30;;;;;;5045648;28;1200;-72
2021/10/14 11:23:02;;;;;;;;;;;22.20;57.30;;;;;;5068282;28;1910;-71
2021/10/14 11:25:27;;;;;;;;;;;22.20;57.30;;;;;;5064815;28;1658;-71
2021/10/14 11:28:01;;;;;;;;;;;22.20;57.30;;;;;;5055557;28;1364;-70
2021/10/14 11:30:33;;;;;;;;;;;22.20;57.10;;;;;;5055549;28;1274;-71
2021/10/14 11:33:08;;;;;;;;;;;22.30;57.10;;;;;;5037688;28;1496;-70
2021/10/14 11:35:34;;;;;;;;;;;22.30;56.90;;;;;;5047678;28;1652;-72
2021/10/14 11:38:06;;;;;;;;;;;22.30;56.80;;;;;;5055311;28;1266;-70
2021/10/14 11:40:33;;;;;;;;;;;22.30;56.70;;;;;;5049049;28;1632;-70
2021/10/14 11:42:58;;;;;;;;;;;22.30;56.60;;;;;;5054934;28;1964;-70
2021/10/14 11:45:23;;;;;;;;;;;22.30;56.50;;;;;;5048228;28;1353;-70
2021/10/14 11:47:49;;;;;;;;;;;22.40;56.50;;;;;;5055416;28;1153;-70
2021/10/14 11:50:14;;;;;;;;;;;22.40;56.40;;;;;;5047323;28;1794;-71
2021/10/14 11:52:40;;;;;;;;;;;22.40;56.40;;;;;;5040906;28;1664;-71
2021/10/14 11:55:06;;;;;;;;;;;22.40;56.40;;;;;;5068300;28;1401;-71
2021/10/14 11:57:31;;;;;;;;;;;22.40;56.30;;;;;;5074555;28;1703;-71
2021/10/14 11:59:57;;;;;;;;;;;22.40;56.30;;;;;;5043112;28;1643;-71
2021/10/14 12:02:23;;;;;;;;;;;22.40;56.30;;;;;;5040796;28;1428;-71
2021/10/14 12:04:50;;;;;;;;;;;22.40;56.30;;;;;;5053082;28;1902;-71
2021/10/14 12:07:28;;;;;;;;;;;22.40;56.30;;;;;;5054308;28;1448;-71
2021/10/14 12:09:54;;;;;;;;;;;22.40;56.20;;;;;;5059099;28;1330;-71
2021/10/14 12:12:20;;;;;;;;;;;22.40;56.30;;;;;;5066786;28;1382;-71
2021/10/14 12:14:46;;;;;;;;;;;22.30;56.20;;;;;;5038616;28;1730;-71
2021/10/14 12:17:12;;;;;;;;;;;22.30;56.20;;;;;;5045198;28;1365;-71
2021/10/14 12:19:42;;;;;;;;;;;22.30;56.30;;;;;;5054484;28;1532;-71
2021/10/14 12:22:07;;;;;;;;;;;22.30;56.30;;;;;;5045793;28;1276;-71
2021/10/14 12:24:37;;;;;;;;;;;22.30;56.30;;;;;;5052562;28;1906;-71
2021/10/14 12:27:03;;;;;;;;;;;22.30;56.30;;;;;;5052027;28;1377;-70
2021/10/14 12:29:29;;;;;;;;;;;22.30;56.30;;;;;;5054289;28;1378;-71
2021/10/14 12:32:04;;;;;;;;;;;22.30;56.40;;;;;;5054252;28;1362;-70
2021/10/14 12:34:43;;;;;;;;;;;22.30;56.40;;;;;;5061622;28;1660;-70
2021/10/14 12:37:08;;;;;;;;;;;22.30;56.40;;;;;;5055788;28;1367;-70
2021/10/14 12:39:34;;;;;;;;;;;22.30;56.40;;;;;;5056120;28;1220;-70
2021/10/14 12:42:00;;;;;;;;;;;22.30;56.40;;;;;;5056006;28;1703;-71
2021/10/14 12:44:35;;;;;;;;;;;22.30;56.50;;;;;;5056338;28;1957;-71
2021/10/14 12:47:04;;;;;;;;;;;22.20;56.40;;;;;;5033906;28;1467;-70
2021/10/14 12:49:51;;;;;;;;;;;22.20;56.50;;;;;;5052877;28;1510;-70
2021/10/14 12:52:19;;;;;;;;;;;22.20;56.50;;;;;;5058815;28;1238;-71
2021/10/14 12:54:45;;;;;;;;;;;22.20;56.50;;;;;;5056159;28;1700;-71
2021/10/14 12:57:10;;;;;;;;;;;22.20;56.60;;;;;;5055996;28;1362;-71
2021/10/14 12:59:38;;;;;;;;;;;22.20;56.60;;;;;;5073616;28;1770;-71
2021/10/14 13:02:03;;;;;;;;;;;22.20;56.60;;;;;;5073238;28;1413;-71
2021/10/14 13:04:30;;;;;;;;;;;22.20;56.60;;;;;;5073100;28;1906;-71
2021/10/14 13:06:55;;;;;;;;;;;22.20;56.60;;;;;;5047454;28;1352;-70
2021/10/14 13:09:23;;;;;;;;;;;22.10;56.70;;;;;;5059451;28;1379;-70
2021/10/14 13:11:49;;;;;;;;;;;22.10;56.70;;;;;;5061874;28;1281;-70
2021/10/14 13:14:14;;;;;;;;;;;22.10;57.30;;;;;;5046719;28;1279;-71
2021/10/14 13:16:40;;;;;;;;;;;22.10;56.70;;;;;;5040023;28;1456;-71
2021/10/14 13:19:05;;;;;;;;;;;22.10;56.70;;;;;;5051883;28;1409;-71
2021/10/14 13:21:31;;;;;;;;;;;22.10;56.80;;;;;;5039571;28;1688;-70
2021/10/14 13:23:56;;;;;;;;;;;22.10;56.80;;;;;;5057989;28;1902;-71
2021/10/14 13:26:22;;;;;;;;;;;22.10;56.80;;;;;;5038746;28;1534;-70
2021/10/14 13:28:48;;;;;;;;;;;22.10;56.80;;;;;;5052004;28;1760;-71
2021/10/14 13:31:13;;;;;;;;;;;22.10;56.80;;;;;;5056351;28;1177;-71
2021/10/14 13:33:40;;;;;;;;;;;22.10;56.90;;;;;;5061704;28;1373;-71
2021/10/14 13:36:08;;;;;;;;;;;22.00;56.80;;;;;;5060354;28;1318;-71
2021/10/14 13:38:34;;;;;;;;;;;22.00;56.80;;;;;;5044030;28;1280;-72
2021/10/14 13:41:02;;;;;;;;;;;22.00;56.90;;;;;;5046340;28;1407;-71
2021/10/14 13:43:31;;;;;;;;;;;22.00;56.90;;;;;;5041940;28;1965;-71
2021/10/14 13:45:57;;;;;;;;;;;22.00;56.90;;;;;;5068700;28;1266;-70
2021/10/14 13:48:23;;;;;;;;;;;22.00;56.90;;;;;;5063278;28;1298;-70
2021/10/14 13:50:48;;;;;;;;;;;22.00;56.90;;;;;;5045685;28;2096;-69
2021/10/14 13:53:14;;;;;;;;;;;22.00;57.00;;;;;;5066142;28;1381;-70
2021/10/14 13:55:40;;;;;;;;;;;22.00;57.00;;;;;;5047799;28;1735;-69
2021/10/14 13:58:05;;;;;;;;;;;22.00;57.00;;;;;;5044831;28;1661;-69
2021/10/14 14:00:31;;;;;;;;;;;22.00;57.00;;;;;;5062159;28;1669;-69
2021/10/14 14:02:56;;;;;;;;;;;21.90;57.00;;;;;;5060095;28;1954;-70
2021/10/14 14:05:21;;;;;;;;;;;21.90;57.10;;;;;;5062414;28;1630;-70
2021/10/14 14:07:47;;;;;;;;;;;22.00;57.10;;;;;;5052688;28;1479;-69
2021/10/14 14:10:12;;;;;;;;;;;21.90;57.00;;;;;;5072693;28;1394;-70
2021/10/14 14:12:38;;;;;;;;;;;21.90;57.10;;;;;;5055107;28;1672;-70
2021/10/14 14:15:03;;;;;;;;;;;21.90;57.00;;;;;;5052165;28;1384;-69
2021/10/14 14:17:29;;;;;;;;;;;21.90;57.10;;;;;;5045364;28;1457;-70
2021/10/14 14:19:54;;;;;;;;;;;21.90;57.10;;;;;;5052496;28;1645;-70
2021/10/14 14:22:20;;;;;;;;;;;21.90;57.10;;;;;;5052387;28;1465;-69
2021/10/14 14:24:45;;;;;;;;;;;21.90;57.10;;;;;;5052275;28;1906;-70
2021/10/14 14:27:11;;;;;;;;;;;21.90;57.10;;;;;;5052521;28;1377;-70
2021/10/14 14:29:36;;;;;;;;;;;21.90;57.10;;;;;;5052165;28;1387;-70
2021/10/14 14:32:01;;;;;;;;;;;21.90;57.20;;;;;;5053008;28;1602;-71
2021/10/14 14:34:27;;;;;;;;;;;21.90;57.80;;;;;;5037500;28;1189;-71
2021/10/14 14:36:52;;;;;;;;;;;21.90;57.20;;;;;;5065602;28;1235;-70
2021/10/14 14:39:18;;;;;;;;;;;21.90;57.20;;;;;;5043164;28;1393;-70
2021/10/14 14:41:43;;;;;;;;;;;21.90;57.20;;;;;;5054374;28;1476;-71